createdAt,value
2023-01-19T00:02:41.779Z,2.40
2023-01-19T00:07:00.903Z,2.10
2023-01-19T00:11:02.227Z,2.20
2023-01-19T00:14:50.376Z,2.20
2023-01-19T00:18:35.080Z,2.20
2023-01-19T00:23:16.850Z,2.90
2023-01-19T00:26:39.501Z,2.80
2023-01-19T00:30:20.735Z,2.40
2023-01-19T00:34:08.963Z,2.30
2023-01-19T00:38:01.003Z,2.10
2023-01-19T00:42:10.401Z,2.40
2023-01-19T00:50:38.622Z,2.50
2023-01-19T00:54:27.580Z,2.60
2023-01-19T00:58:36.834Z,2.40
2023-01-19T01:03:12.311Z,2.30
2023-01-19T01:06:37.200Z,2.90
2023-01-19T01:10:19.080Z,2.50
2023-01-19T01:14:08.577Z,2.80
2023-01-19T01:18:17.908Z,2.70
2023-01-19T01:22:18.398Z,2.60
2023-01-19T01:26:07.977Z,2.80
2023-01-19T01:29:55.908Z,2.70
2023-01-19T01:33:40.821Z,3.10
2023-01-19T01:37:39.640Z,3.10
2023-01-19T01:41:30.955Z,3.00
2023-01-19T01:45:23.995Z,3.00
2023-01-19T01:49:33.544Z,3.40
2023-01-19T01:54:20.493Z,2.90
2023-01-19T01:57:43.281Z,3.10
2023-01-19T02:01:30.246Z,5.20
2023-01-19T02:05:21.799Z,4.30
2023-01-19T02:09:23.576Z,3.40
2023-01-19T02:13:45.269Z,3.50
2023-01-19T02:17:55.989Z,3.20
2023-01-19T02:23:03.558Z,3.20
2023-01-19T02:26:34.044Z,3.30
2023-01-19T02:32:59.758Z,3.50
2023-01-19T02:35:09.952Z,3.90
2023-01-19T02:39:12.765Z,3.50
2023-01-19T02:43:14.726Z,3.50
2023-01-19T02:47:04.626Z,3.40
2023-01-19T02:51:46.343Z,3.60
2023-01-19T02:56:17.942Z,3.40
2023-01-19T02:59:38.893Z,3.70
2023-01-19T03:03:47.566Z,3.10
2023-01-19T03:08:11.005Z,3.00
2023-01-19T03:12:01.284Z,3.50
2023-01-19T03:16:09.119Z,3.80
2023-01-19T03:20:13.491Z,3.90
2023-01-19T03:24:21.745Z,3.30
2023-01-19T03:28:27.411Z,3.80
2023-01-19T03:33:04.972Z,3.90
2023-01-19T03:37:17.293Z,3.10
2023-01-19T03:41:29.703Z,3.40
2023-01-19T03:45:22.560Z,3.10
2023-01-19T03:49:30.447Z,3.20
2023-01-19T03:58:07.087Z,3.10
2023-01-19T04:03:02.946Z,3.10
2023-01-19T04:08:20.689Z,3.30
2023-01-19T04:11:14.216Z,3.30
2023-01-19T04:15:07.058Z,2.80
2023-01-19T04:20:39.582Z,3.90
2023-01-19T04:23:46.871Z,3.20
2023-01-19T04:28:21.549Z,3.60
2023-01-19T04:31:46.849Z,3.20
2023-01-19T04:41:16.167Z,3.00
2023-01-19T04:44:40.285Z,2.80
2023-01-19T04:52:46.538Z,2.60
2023-01-19T04:56:58.813Z,3.30
2023-01-19T05:01:15.808Z,3.50
2023-01-19T05:05:25.789Z,2.90
2023-01-19T05:09:34.828Z,3.40
2023-01-19T05:13:44.200Z,2.70
2023-01-19T05:17:27.072Z,2.90
2023-01-19T05:29:38.468Z,2.90
2023-01-19T05:31:11.018Z,3.00
2023-01-19T05:35:35.397Z,2.90
2023-01-19T05:39:41.161Z,3.20
2023-01-19T05:44:07.879Z,3.40
2023-01-19T05:48:18.284Z,2.90
2023-01-19T05:52:07.820Z,3.50
2023-01-19T05:56:03.893Z,2.60
2023-01-19T06:00:30.258Z,2.20
2023-01-19T06:04:16.701Z,2.20
2023-01-19T06:08:04.595Z,2.20
2023-01-19T06:11:53.070Z,2.30
2023-01-19T06:15:49.776Z,2.00
2023-01-19T06:20:03.711Z,2.30
2023-01-19T06:23:51.662Z,2.10
2023-01-19T06:27:39.504Z,4.00
2023-01-19T06:31:32.942Z,3.90
2023-01-19T06:35:24.906Z,3.70
2023-01-19T06:40:04.332Z,2.80
2023-01-19T06:43:27.975Z,1.70
2023-01-19T06:47:25.256Z,1.80
2023-01-19T06:51:34.807Z,3.60
2023-01-19T06:55:30.826Z,3.40
2023-01-19T06:59:38.783Z,2.40
2023-01-19T07:03:37.815Z,2.10
2023-01-19T07:07:59.454Z,3.10
2023-01-19T07:12:20.815Z,3.90
2023-01-19T07:16:14.267Z,2.90
2023-01-19T07:21:41.135Z,3.80
2023-01-19T07:24:32.352Z,3.20
2023-01-19T07:28:35.747Z,2.70
2023-01-19T07:32:51.193Z,3.70
2023-01-19T07:36:43.767Z,3.00
2023-01-19T07:40:38.572Z,3.00
2023-01-19T07:45:27.170Z,2.30
2023-01-19T07:48:54.998Z,2.70
2023-01-19T07:53:27.163Z,2.70
2023-01-19T07:57:25.108Z,3.80
2023-01-19T08:01:13.596Z,2.40
2023-01-19T08:05:29.637Z,2.00
2023-01-19T08:09:28.441Z,2.20
2023-01-19T08:13:19.025Z,8.10
2023-01-19T08:17:30.323Z,5.60
2023-01-19T08:21:32.813Z,4.60
2023-01-19T08:25:41.713Z,5.60
2023-01-19T08:29:32.863Z,3.40
2023-01-19T08:33:27.948Z,3.20
2023-01-19T08:37:31.821Z,4.20
2023-01-19T08:41:40.967Z,9.80
2023-01-19T08:45:33.779Z,5.50
2023-01-19T08:49:41.701Z,3.50
2023-01-19T08:53:54.805Z,2.30
2023-01-19T08:57:47.875Z,2.50
2023-01-19T09:05:10.573Z,2.30
2023-01-19T09:09:24.302Z,2.70
2023-01-19T09:13:12.207Z,2.70
2023-01-19T09:17:02.228Z,3.10
2023-01-19T09:20:54.581Z,3.20
2023-01-19T09:25:13.992Z,2.70
2023-01-19T09:29:12.582Z,2.60
2023-01-19T09:33:13.377Z,3.60
2023-01-19T09:37:02.714Z,3.50
2023-01-19T09:40:55.500Z,3.70
2023-01-19T09:44:49.787Z,3.10
2023-01-19T09:48:40.541Z,3.40
2023-01-19T09:52:30.673Z,3.50
2023-01-19T09:56:43.841Z,3.40
2023-01-19T10:00:38.066Z,3.30
2023-01-19T10:04:46.433Z,3.60
2023-01-19T10:08:56.890Z,4.00
2023-01-19T10:12:57.029Z,4.40
2023-01-19T10:16:50.559Z,3.70
2023-01-19T10:20:39.767Z,4.10
2023-01-19T10:25:03.338Z,3.80
2023-01-19T10:30:38.707Z,3.90
2023-01-19T10:33:24.494Z,4.00
2023-01-19T10:37:13.059Z,3.90
2023-01-19T10:40:56.967Z,4.10
2023-01-19T10:46:48.673Z,4.10
2023-01-19T10:49:37.826Z,3.00
2023-01-19T10:53:38.970Z,3.10
2023-01-19T10:57:41.831Z,2.60
2023-01-19T11:01:35.375Z,2.40
2023-01-19T11:10:27.414Z,2.30
2023-01-19T11:14:19.936Z,2.70
2023-01-19T11:18:28.413Z,2.40
2023-01-19T11:22:18.720Z,2.60
2023-01-19T11:30:35.759Z,4.10
2023-01-19T11:38:29.096Z,2.90
2023-01-19T11:42:32.445Z,3.40
2023-01-19T11:46:29.034Z,2.70
2023-01-19T11:50:32.071Z,2.40
2023-01-19T11:54:36.087Z,1.60
2023-01-19T11:58:28.105Z,1.70
2023-01-19T12:02:22.716Z,1.40
2023-01-19T12:06:23.911Z,1.10
2023-01-19T12:10:17.933Z,0.80
2023-01-19T12:14:26.487Z,0.90
2023-01-19T12:19:07.313Z,1.30
2023-01-19T12:22:38.354Z,0.90
2023-01-19T12:27:13.394Z,0.80
2023-01-19T12:35:32.772Z,0.50
2023-01-19T12:40:03.820Z,0.40
2023-01-19T12:43:59.133Z,0.80
2023-01-19T12:48:15.686Z,0.30
2023-01-19T12:52:04.857Z,0.30
2023-01-19T12:55:53.492Z,0.70
2023-01-19T12:59:44.569Z,0.40
2023-01-19T13:07:49.753Z,0.90
2023-01-19T13:11:42.033Z,0.60
2023-01-19T13:15:39.759Z,1.00
2023-01-19T13:19:46.263Z,0.70
2023-01-19T13:24:38.139Z,0.90
2023-01-19T13:28:28.377Z,1.50
2023-01-19T13:32:04.291Z,0.90
2023-01-19T13:37:10.607Z,1.10
2023-01-19T13:40:33.860Z,1.10
2023-01-19T13:44:25.231Z,2.10
2023-01-19T13:49:00.047Z,1.50
2023-01-19T13:52:52.582Z,2.20
2023-01-19T13:56:49.347Z,1.60
2023-01-19T14:00:50.039Z,1.50
2023-01-19T14:04:40.163Z,2.20
2023-01-19T14:08:51.111Z,2.40
2023-01-19T14:13:16.391Z,2.10
2023-01-19T14:17:50.100Z,2.40
2023-01-19T14:21:57.670Z,3.00
2023-01-19T14:25:47.811Z,2.70
2023-01-19T14:29:44.695Z,2.80
2023-01-19T14:33:40.074Z,2.80
2023-01-19T14:37:26.967Z,2.80
2023-01-19T14:41:45.919Z,3.00
2023-01-19T14:45:39.290Z,3.10
2023-01-19T14:50:04.734Z,3.10
2023-01-19T14:54:08.957Z,3.40
2023-01-19T14:58:33.770Z,2.50
2023-01-19T15:06:54.850Z,2.80
2023-01-19T15:10:53.007Z,2.40
2023-01-19T15:15:10.100Z,2.40
2023-01-19T15:18:55.615Z,2.70
2023-01-19T15:22:48.852Z,2.50
2023-01-19T15:26:42.082Z,2.60
2023-01-19T15:34:23.119Z,3.00
2023-01-19T15:38:22.631Z,2.80
2023-01-19T15:42:26.519Z,3.30
2023-01-19T15:47:33.213Z,4.30
2023-01-19T15:50:52.590Z,3.20
2023-01-19T15:54:42.575Z,2.40
2023-01-19T15:58:41.346Z,2.30
2023-01-19T16:03:04.577Z,2.90
2023-01-19T16:07:07.053Z,2.60
2023-01-19T16:11:10.752Z,2.50
2023-01-19T16:15:11.208Z,2.40
2023-01-19T16:23:43.195Z,1.80
2023-01-19T16:27:20.632Z,1.70
2023-01-19T16:31:08.981Z,1.90
2023-01-19T16:34:54.653Z,1.90
2023-01-19T16:38:53.236Z,2.00
2023-01-19T16:42:51.226Z,2.00
2023-01-19T16:46:57.640Z,2.20
2023-01-19T16:50:59.659Z,2.20
2023-01-19T16:55:01.155Z,2.20
2023-01-19T16:59:54.375Z,2.20
2023-01-19T17:03:23.022Z,2.30
2023-01-19T17:07:25.033Z,2.50
2023-01-19T17:11:43.579Z,2.30
2023-01-19T17:15:34.548Z,1.90
2023-01-19T17:19:41.553Z,2.90
2023-01-19T17:23:36.122Z,1.80
2023-01-19T17:27:34.524Z,1.60
2023-01-19T17:31:34.079Z,1.60
2023-01-19T17:35:20.019Z,1.40
2023-01-19T17:39:18.567Z,1.80
2023-01-19T17:43:23.789Z,1.60
2023-01-19T17:47:40.315Z,2.20
2023-01-19T17:51:36.617Z,3.00
2023-01-19T17:55:48.596Z,3.40
2023-01-19T17:59:44.933Z,3.00
2023-01-19T18:04:10.615Z,2.50
2023-01-19T18:12:30.971Z,2.80
2023-01-19T18:16:32.006Z,2.00
2023-01-19T18:20:31.653Z,1.80
2023-01-19T18:28:19.643Z,1.50
2023-01-19T18:32:28.758Z,1.20
2023-01-19T18:36:34.540Z,1.40
2023-01-19T18:40:18.541Z,2.20
2023-01-19T18:41:35.608Z,1.50
2023-01-19T18:44:12.666Z,2.00
2023-01-19T18:52:21.081Z,1.40
2023-01-19T18:55:47.018Z,1.90
2023-01-19T18:59:49.028Z,2.50
2023-01-19T19:09:12.636Z,2.00
2023-01-19T19:11:30.352Z,2.20
2023-01-19T19:15:15.565Z,3.50
2023-01-19T19:22:25.645Z,3.10
2023-01-19T19:23:21.683Z,3.40
2023-01-19T19:26:34.332Z,3.30
2023-01-19T19:30:31.268Z,3.50
2023-01-19T19:34:25.647Z,3.00
2023-01-19T19:38:22.523Z,2.60
2023-01-19T19:42:11.079Z,2.90
2023-01-19T19:45:51.848Z,3.60
2023-01-19T19:49:41.032Z,3.60
2023-01-19T19:53:12.425Z,6.30
2023-01-19T19:57:01.553Z,2.60
2023-01-19T20:05:25.918Z,2.70
2023-01-19T20:09:20.931Z,2.90
2023-01-19T20:13:01.581Z,2.90
2023-01-19T20:21:00.323Z,4.10
2023-01-19T20:24:04.602Z,3.30
2023-01-19T20:27:44.865Z,1.90
2023-01-19T20:31:54.931Z,2.60
2023-01-19T20:39:38.166Z,1.90
2023-01-19T20:43:08.527Z,1.90
2023-01-19T20:51:12.081Z,2.00
2023-01-19T20:54:56.505Z,2.20
2023-01-19T20:58:57.109Z,2.10
2023-01-19T21:02:53.290Z,3.00
2023-01-19T21:06:45.838Z,2.80
2023-01-19T21:10:37.822Z,2.50
2023-01-19T21:15:31.613Z,2.30
2023-01-19T21:23:08.789Z,1.80
2023-01-19T21:27:39.057Z,1.90
2023-01-19T21:31:03.010Z,1.60
2023-01-19T21:34:59.025Z,2.40
2023-01-19T21:38:55.755Z,1.90
2023-01-19T21:43:12.083Z,2.50
2023-01-19T21:47:04.528Z,3.20
2023-01-19T21:50:57.020Z,2.50
2023-01-19T21:55:03.275Z,2.20
2023-01-19T21:58:59.593Z,2.10
2023-01-19T22:03:04.721Z,1.80
2023-01-19T22:07:14.596Z,1.80
2023-01-19T22:11:22.449Z,2.20
2023-01-19T22:15:23.256Z,5.00
2023-01-19T22:19:24.587Z,2.70
2023-01-19T22:23:55.026Z,3.30
2023-01-19T22:27:51.141Z,3.70
2023-01-19T22:32:44.792Z,2.60
2023-01-19T22:36:09.834Z,2.90
2023-01-19T22:40:06.799Z,3.60
2023-01-19T22:44:11.926Z,2.30
2023-01-19T22:48:01.596Z,2.20
2023-01-19T22:52:06.697Z,3.00
2023-01-19T22:56:23.250Z,2.70
2023-01-19T23:01:39.650Z,2.30
2023-01-19T23:04:17.460Z,3.00
2023-01-19T23:08:17.434Z,2.40
2023-01-19T23:12:18.478Z,2.40
2023-01-19T23:16:09.764Z,2.70
2023-01-19T23:19:59.879Z,3.00
2023-01-19T23:32:16.531Z,2.20
2023-01-19T23:36:07.723Z,2.00
2023-01-19T23:40:17.659Z,2.10
2023-01-19T23:44:09.680Z,2.10
2023-01-19T23:49:50.311Z,1.90
2023-01-19T23:56:22.618Z,1.80
